Time;durP1;ratioP1;P1;durP2;ratioP2;P2;SDS_P1;SDS_P2;PMS_P1;PMS_P2;Temp;Humidity;BMP_temperature;BMP_pressure;BME280_temperature;BME280_humidity;BME280_pressure;Samples;Min_cycle;Max_cycle;Signal;HPM_P1;HPM_P2
2023/03/06 00:01:47;;;;;;;;;;;3.70;99.90;;;;;;5025565;28;19929;-82
2023/03/06 00:04:13;;;;;;;;;;;5.30;99.90;;;;;;5028771;28;19929;-82
2023/03/06 00:06:39;;;;;;;;;;;5.80;99.90;;;;;;5026520;28;19929;-81
2023/03/06 00:09:04;;;;;;;;;;;5.80;99.90;;;;;;4997239;28;19929;-81
2023/03/06 00:11:30;;;;;;;;;;;4.40;99.90;;;;;;5008292;28;20331;-81
2023/03/06 00:13:55;;;;;;;;;;;4.90;99.90;;;;;;5022137;28;19987;-81
2023/03/06 00:16:21;;;;;;;;;;;3.80;99.90;;;;;;5004282;28;20377;-82
2023/03/06 00:18:47;;;;;;;;;;;5.50;99.90;;;;;;5004031;28;20381;-82
2023/03/06 00:21:12;;;;;;;;;;;3.80;99.90;;;;;;5002984;28;20000;-83
2023/03/06 00:23:40;;;;;;;;;;;3.80;99.90;;;;;;5023396;28;19928;-84
2023/03/06 00:26:07;;;;;;;;;;;5.30;99.90;;;;;;5007804;28;19929;-83
2023/03/06 00:28:33;;;;;;;;;;;5.30;99.90;;;;;;5006113;28;19932;-83
2023/03/06 00:30:59;;;;;;;;;;;5.90;99.90;;;;;;5022648;28;19968;-83
2023/03/06 00:33:25;;;;;;;;;;;5.30;99.90;;;;;;5007911;28;19929;-83
2023/03/06 00:35:50;;;;;;;;;;;5.90;99.90;;;;;;5024796;28;19928;-83
2023/03/06 00:38:16;;;;;;;;;;;3.70;99.90;;;;;;5004065;28;19933;-83
2023/03/06 00:40:41;;;;;;;;;;;3.70;99.90;;;;;;4994339;28;20286;-83
2023/03/06 00:43:07;;;;;;;;;;;3.80;99.90;;;;;;5022804;28;19972;-83
2023/03/06 00:45:32;;;;;;;;;;;3.70;99.90;;;;;;5004795;28;19925;-82
2023/03/06 00:47:58;;;;;;;;;;;3.70;99.90;;;;;;5025854;28;20373;-83
2023/03/06 00:50:23;;;;;;;;;;;5.30;99.90;;;;;;5022294;28;19926;-83
2023/03/06 00:52:49;;;;;;;;;;;3.70;99.90;;;;;;5029711;28;19929;-83
2023/03/06 00:55:15;;;;;;;;;;;4.80;99.90;;;;;;5005855;28;19930;-83
2023/03/06 00:57:40;;;;;;;;;;;3.80;99.90;;;;;;5005430;28;19925;-82
2023/03/06 01:00:06;;;;;;;;;;;5.70;99.90;;;;;;5005699;28;19925;-83
2023/03/06 01:02:32;;;;;;;;;;;3.80;99.90;;;;;;5004569;28;19948;-83
2023/03/06 01:04:57;;;;;;;;;;;4.20;99.90;;;;;;5005907;28;20365;-83
2023/03/06 01:07:23;;;;;;;;;;;3.90;99.90;;;;;;5004311;28;19926;-83
2023/03/06 01:09:48;;;;;;;;;;;5.20;99.90;;;;;;5020220;28;20000;-83
2023/03/06 01:12:14;;;;;;;;;;;3.90;99.90;;;;;;5007704;28;19926;-82
2023/03/06 01:14:39;;;;;;;;;;;3.80;99.90;;;;;;5005951;28;20274;-83
2023/03/06 01:17:05;;;;;;;;;;;5.90;99.90;;;;;;5004679;28;19929;-82
2023/03/06 01:19:30;;;;;;;;;;;5.90;99.90;;;;;;4995522;28;19925;-82
2023/03/06 01:21:56;;;;;;;;;;;4.80;99.90;;;;;;5006093;28;19960;-83
2023/03/06 01:24:24;;;;;;;;;;;5.70;99.90;;;;;;5003457;28;20436;-83
2023/03/06 01:26:50;;;;;;;;;;;3.90;99.90;;;;;;5023871;28;19932;-83
2023/03/06 01:29:15;;;;;;;;;;;3.80;99.90;;;;;;5019662;28;19929;-83
2023/03/06 01:31:41;;;;;;;;;;;3.80;99.90;;;;;;5000009;28;20284;-83
2023/03/06 01:34:06;;;;;;;;;;;3.70;99.90;;;;;;5024179;28;19933;-84
2023/03/06 01:36:32;;;;;;;;;;;4.70;99.90;;;;;;5004025;28;20317;-84
2023/03/06 01:38:58;;;;;;;;;;;3.60;99.90;;;;;;5019576;28;19925;-83
2023/03/06 01:41:23;;;;;;;;;;;3.60;99.90;;;;;;5001775;28;19933;-83
2023/03/06 01:43:49;;;;;;;;;;;5.80;99.90;;;;;;5020460;28;20373;-83
2023/03/06 01:46:23;;;;;;;;;;;3.60;99.90;;;;;;5005973;28;19940;-83
2023/03/06 01:49:09;;;;;;;;;;;3.50;99.90;;;;;;4996504;28;20364;-83
2023/03/06 01:51:55;;;;;;;;;;;5.10;99.90;;;;;;5004923;28;19933;-83
2023/03/06 01:54:26;;;;;;;;;;;4.90;99.90;;;;;;4996356;28;19945;-83
2023/03/06 01:56:53;;;;;;;;;;;3.40;99.90;;;;;;5003080;28;20289;-84
2023/03/06 01:59:20;;;;;;;;;;;4.30;99.90;;;;;;5020333;28;19925;-84
2023/03/06 02:01:46;;;;;;;;;;;3.70;99.90;;;;;;5003127;28;20300;-84
2023/03/06 02:04:11;;;;;;;;;;;3.30;99.90;;;;;;5006644;28;19925;-83
2023/03/06 02:06:38;;;;;;;;;;;3.20;99.90;;;;;;5016092;28;20850;-83
2023/03/06 02:09:04;;;;;;;;;;;3.10;99.90;;;;;;5021862;28;19927;-83
2023/03/06 02:11:30;;;;;;;;;;;3.10;99.90;;;;;;5022940;28;19925;-83
2023/03/06 02:13:55;;;;;;;;;;;4.30;99.90;;;;;;5003551;28;20020;-84
2023/03/06 02:16:24;;;;;;;;;;;3.00;99.90;;;;;;5007543;28;20303;-84
2023/03/06 02:18:50;;;;;;;;;;;2.90;99.90;;;;;;5004137;28;19930;-83
2023/03/06 02:21:27;;;;;;;;;;;3.80;99.90;;;;;;5004561;28;19933;-84
2023/03/06 02:24:11;;;;;;;;;;;4.50;99.90;;;;;;5003307;28;19952;-84
2023/03/06 02:26:38;;;;;;;;;;;3.00;99.90;;;;;;4998077;28;19925;-84
2023/03/06 02:29:03;;;;;;;;;;;3.00;99.90;;;;;;5001757;28;19988;-84
2023/03/06 02:31:30;;;;;;;;;;;3.00;99.90;;;;;;5001612;28;20040;-83
2023/03/06 02:34:00;;;;;;;;;;;3.00;99.90;;;;;;4997917;28;19926;-84
2023/03/06 02:36:25;;;;;;;;;;;3.00;99.90;;;;;;5021534;28;19929;-84
2023/03/06 02:38:51;;;;;;;;;;;5.10;99.90;;;;;;5004152;28;19933;-84
2023/03/06 02:41:16;;;;;;;;;;;4.10;99.90;;;;;;5006622;28;20331;-83
2023/03/06 02:43:42;;;;;;;;;;;2.90;99.90;;;;;;5020293;28;19983;-84
2023/03/06 02:46:08;;;;;;;;;;;4.70;99.90;;;;;;5005389;28;19972;-83
2023/03/06 02:48:33;;;;;;;;;;;3.90;99.90;;;;;;4993151;28;20333;-84
2023/03/06 02:50:59;;;;;;;;;;;4.80;99.90;;;;;;5023040;28;20292;-84
2023/03/06 02:53:25;;;;;;;;;;;4.60;99.90;;;;;;5019887;28;20288;-84
2023/03/06 02:55:50;;;;;;;;;;;2.90;99.90;;;;;;5002238;28;19986;-84
2023/03/06 02:58:18;;;;;;;;;;;2.90;99.90;;;;;;5005901;28;20339;-84
2023/03/06 03:00:44;;;;;;;;;;;3.60;99.90;;;;;;5020282;28;19932;-85
2023/03/06 03:03:09;;;;;;;;;;;2.90;99.90;;;;;;5016071;28;19925;-84
2023/03/06 03:05:35;;;;;;;;;;;2.90;99.90;;;;;;5005174;28;19929;-85
2023/03/06 03:08:01;;;;;;;;;;;2.90;99.90;;;;;;5009779;28;19930;-85
2023/03/06 03:10:26;;;;;;;;;;;2.90;99.90;;;;;;4996693;28;19935;-85
2023/03/06 03:12:52;;;;;;;;;;;2.80;99.90;;;;;;5007646;28;19926;-85
2023/03/06 03:15:17;;;;;;;;;;;2.80;99.90;;;;;;5029319;28;19929;-85
2023/03/06 03:17:43;;;;;;;;;;;2.80;99.90;;;;;;5003907;28;20384;-84
2023/03/06 03:20:10;;;;;;;;;;;2.80;99.90;;;;;;5023989;28;19968;-84
2023/03/06 03:22:36;;;;;;;;;;;2.70;99.90;;;;;;5020391;28;19940;-84
2023/03/06 03:25:02;;;;;;;;;;;3.80;99.90;;;;;;5025802;28;20341;-84
2023/03/06 03:27:28;;;;;;;;;;;3.50;99.90;;;;;;5022317;28;19929;-84
2023/03/06 03:29:55;;;;;;;;;;;2.70;99.90;;;;;;5023115;28;19999;-85
2023/03/06 03:32:21;;;;;;;;;;;4.30;99.90;;;;;;5005070;28;19949;-84
2023/03/06 03:34:46;;;;;;;;;;;2.60;99.90;;;;;;5008327;28;19933;-84
2023/03/06 03:37:12;;;;;;;;;;;4.50;99.90;;;;;;5003486;28;19929;-84
2023/03/06 03:39:37;;;;;;;;;;;4.10;99.90;;;;;;5024271;28;19929;-84
2023/03/06 03:42:03;;;;;;;;;;;4.20;99.90;;;;;;5025364;28;19983;-84
2023/03/06 03:44:29;;;;;;;;;;;2.30;99.90;;;;;;5023666;28;20012;-84
2023/03/06 03:46:54;;;;;;;;;;;2.30;99.90;;;;;;5008397;28;20377;-84
2023/03/06 03:49:20;;;;;;;;;;;2.30;99.90;;;;;;5016306;28;19925;-84
2023/03/06 03:51:45;;;;;;;;;;;2.30;99.90;;;;;;5023339;28;19929;-84
2023/03/06 03:54:11;;;;;;;;;;;4.40;99.90;;;;;;5022470;28;19928;-84
2023/03/06 03:56:38;;;;;;;;;;;2.40;99.90;;;;;;5024127;28;19936;-85
2023/03/06 03:59:04;;;;;;;;;;;3.90;99.90;;;;;;5024728;28;19925;-84
2023/03/06 04:01:30;;;;;;;;;;;2.40;99.90;;;;;;5023030;28;19940;-85
2023/03/06 04:03:55;;;;;;;;;;;4.50;99.90;;;;;;5022327;28;19991;-84
2023/03/06 04:06:21;;;;;;;;;;;2.40;99.90;;;;;;5007552;28;20012;-84
2023/03/06 04:08:46;;;;;;;;;;;2.40;99.90;;;;;;5022231;28;19929;-84
2023/03/06 04:11:12;;;;;;;;;;;2.50;99.90;;;;;;5004214;28;20038;-84
2023/03/06 04:13:37;;;;;;;;;;;2.40;99.90;;;;;;5007604;28;19922;-84
2023/03/06 04:16:03;;;;;;;;;;;2.50;99.90;;;;;;5025825;28;20375;-84
2023/03/06 04:18:28;;;;;;;;;;;2.50;99.90;;;;;;5023144;28;19925;-84
2023/03/06 04:20:54;;;;;;;;;;;2.50;99.90;;;;;;5004054;28;19926;-84
2023/03/06 04:23:21;;;;;;;;;;;2.50;99.90;;;;;;5007911;28;19925;-84
2023/03/06 04:25:47;;;;;;;;;;;2.50;99.90;;;;;;5012630;28;19925;-85
2023/03/06 04:28:12;;;;;;;;;;;2.50;99.90;;;;;;5008344;28;20020;-84
2023/03/06 04:30:38;;;;;;;;;;;2.50;99.90;;;;;;5004062;28;19969;-84
2023/03/06 04:33:03;;;;;;;;;;;3.00;99.90;;;;;;5025551;28;20388;-84
2023/03/06 04:35:29;;;;;;;;;;;4.50;99.90;;;;;;5005254;28;20377;-84
2023/03/06 04:37:54;;;;;;;;;;;2.50;99.90;;;;;;5021208;28;19931;-84
2023/03/06 04:40:21;;;;;;;;;;;3.80;99.90;;;;;;5019770;28;19952;-84
2023/03/06 04:42:47;;;;;;;;;;;3.90;99.90;;;;;;5007262;28;19925;-85
2023/03/06 04:45:14;;;;;;;;;;;2.50;99.90;;;;;;5025656;28;20404;-84
2023/03/06 04:47:39;;;;;;;;;;;2.40;99.90;;;;;;5019829;28;19922;-84
2023/03/06 04:50:05;;;;;;;;;;;2.30;99.90;;;;;;5024107;28;19936;-84
2023/03/06 04:52:31;;;;;;;;;;;2.30;99.90;;;;;;5025426;28;20277;-85
2023/03/06 04:54:56;;;;;;;;;;;2.20;99.90;;;;;;5005619;28;19936;-85
2023/03/06 04:57:22;;;;;;;;;;;2.20;99.90;;;;;;5014344;28;19926;-85
2023/03/06 04:59:49;;;;;;;;;;;2.10;99.90;;;;;;5025033;28;20368;-85
2023/03/06 05:02:15;;;;;;;;;;;2.00;99.90;;;;;;5025563;28;20012;-85
2023/03/06 05:04:41;;;;;;;;;;;2.00;99.90;;;;;;5024354;28;19932;-85
2023/03/06 05:07:06;;;;;;;;;;;3.40;99.90;;;;;;5024391;28;20828;-85
2023/03/06 05:09:32;;;;;;;;;;;1.80;99.90;;;;;;5018861;28;20004;-84
2023/03/06 05:11:58;;;;;;;;;;;3.50;99.90;;;;;;5025321;28;19980;-84
2023/03/06 05:14:23;;;;;;;;;;;1.90;99.90;;;;;;5020269;28;20328;-84
2023/03/06 05:16:49;;;;;;;;;;;1.90;99.90;;;;;;5002982;28;19948;-83
2023/03/06 05:19:14;;;;;;;;;;;3.40;99.90;;;;;;5006825;28;20012;-84
2023/03/06 05:21:40;;;;;;;;;;;3.10;99.90;;;;;;5003139;28;20432;-84
2023/03/06 05:24:05;;;;;;;;;;;3.30;99.90;;;;;;5021972;28;20269;-85
2023/03/06 05:26:32;;;;;;;;;;;2.00;99.90;;;;;;5017022;28;20392;-86
2023/03/06 05:28:58;;;;;;;;;;;2.00;99.90;;;;;;5014893;28;19929;-85
2023/03/06 05:31:23;;;;;;;;;;;3.60;99.90;;;;;;5017470;28;20365;-85
2023/03/06 05:33:49;;;;;;;;;;;2.00;99.90;;;;;;5004889;28;20313;-85
2023/03/06 05:36:14;;;;;;;;;;;2.00;99.90;;;;;;5005052;28;19925;-86
2023/03/06 05:38:40;;;;;;;;;;;2.00;99.90;;;;;;5027211;28;19921;-86
2023/03/06 05:41:05;;;;;;;;;;;3.40;99.90;;;;;;5023840;28;19928;-85
2023/03/06 05:43:31;;;;;;;;;;;2.00;99.90;;;;;;5003340;28;20293;-85
2023/03/06 05:46:01;;;;;;;;;;;2.70;99.90;;;;;;5022919;28;20390;-85
2023/03/06 05:48:26;;;;;;;;;;;2.00;99.90;;;;;;5006165;28;19925;-86
2023/03/06 05:50:56;;;;;;;;;;;2.00;99.90;;;;;;5004023;28;19929;-86
2023/03/06 05:53:21;;;;;;;;;;;2.00;99.90;;;;;;5000620;28;19925;-85
2023/03/06 05:55:54;;;;;;;;;;;1.90;99.90;;;;;;4999684;28;20373;-85
2023/03/06 05:58:19;;;;;;;;;;;1.90;99.90;;;;;;5017311;28;20023;-83
2023/03/06 06:00:45;;;;;;;;;;;3.60;99.90;;;;;;5002743;28;20012;-81
2023/03/06 06:03:10;;;;;;;;;;;1.80;99.90;;;;;;4995378;28;19926;-81
2023/03/06 06:05:38;;;;;;;;;;;1.70;99.90;;;;;;5001014;28;19932;-83
2023/03/06 06:08:03;;;;;;;;;;;1.70;99.90;;;;;;5001923;28;19980;-81
2023/03/06 06:10:29;;;;;;;;;;;1.60;99.90;;;;;;5023428;28;19925;-86
2023/03/06 06:12:54;;;;;;;;;;;1.50;99.90;;;;;;5005524;28;19925;-86
2023/03/06 06:15:20;;;;;;;;;;;1.40;99.90;;;;;;5001045;28;20033;-79
2023/03/06 06:17:45;;;;;;;;;;;1.40;99.90;;;;;;5018683;28;19935;-84
2023/03/06 06:20:11;;;;;;;;;;;1.40;99.90;;;;;;5023244;28;20249;-83
2023/03/06 06:22:40;;;;;;;;;;;1.40;99.90;;;;;;5022117;28;19970;-85
2023/03/06 06:25:05;;;;;;;;;;;1.40;99.90;;;;;;5022875;28;19929;-79
2023/03/06 06:27:31;;;;;;;;;;;1.40;99.90;;;;;;5004646;28;19932;-84
2023/03/06 06:29:56;;;;;;;;;;;1.30;99.90;;;;;;5019814;28;19929;-78
2023/03/06 06:32:22;;;;;;;;;;;1.30;99.90;;;;;;5002403;28;20020;-84
2023/03/06 06:34:48;;;;;;;;;;;2.80;99.90;;;;;;5020578;28;19984;-88
2023/03/06 06:37:13;;;;;;;;;;;1.30;99.90;;;;;;5002902;28;19925;-81
2023/03/06 06:39:39;;;;;;;;;;;1.30;99.90;;;;;;4994940;28;19937;-86
2023/03/06 06:42:05;;;;;;;;;;;1.30;99.90;;;;;;5006819;28;19932;-86
2023/03/06 06:44:30;;;;;;;;;;;1.30;99.90;;;;;;5024075;28;19926;-86
2023/03/06 06:46:56;;;;;;;;;;;1.30;99.90;;;;;;5008867;28;20048;-86
2023/03/06 06:49:21;;;;;;;;;;;1.40;99.90;;;;;;5022154;28;19978;-86
2023/03/06 06:51:47;;;;;;;;;;;1.50;99.90;;;;;;5006787;28;19936;-90
2023/03/06 06:54:12;;;;;;;;;;;1.60;99.90;;;;;;5008044;28;19972;-88
2023/03/06 06:56:41;;;;;;;;;;;1.70;99.90;;;;;;5011283;28;19937;-87
2023/03/06 06:59:06;;;;;;;;;;;1.60;99.90;;;;;;5021157;28;19926;-87
2023/03/06 07:01:32;;;;;;;;;;;3.50;99.90;;;;;;5002944;28;19964;-87
2023/03/06 07:03:57;;;;;;;;;;;3.00;99.90;;;;;;5028772;28;20376;-86
2023/03/06 07:06:23;;;;;;;;;;;1.90;99.90;;;;;;5006135;28;19976;-85
2023/03/06 07:08:48;;;;;;;;;;;2.90;99.90;;;;;;5005216;28;19925;-87
2023/03/06 07:11:16;;;;;;;;;;;2.10;99.90;;;;;;5026626;28;20331;-80
2023/03/06 07:13:42;;;;;;;;;;;2.70;99.90;;;;;;5016337;28;19976;-87
2023/03/06 07:16:07;;;;;;;;;;;3.50;99.90;;;;;;5002029;28;19925;-82
2023/03/06 07:18:33;;;;;;;;;;;2.20;99.90;;;;;;5009690;28;19968;-87
2023/03/06 07:20:58;;;;;;;;;;;2.20;99.90;;;;;;5026361;28;19993;-84
2023/03/06 07:23:25;;;;;;;;;;;3.50;99.90;;;;;;5007789;28;19994;-86
2023/03/06 07:25:51;;;;;;;;;;;3.10;99.90;;;;;;5023180;28;20368;-81
2023/03/06 07:28:17;;;;;;;;;;;2.30;99.90;;;;;;5027709;28;19932;-88
2023/03/06 07:30:42;;;;;;;;;;;2.30;99.90;;;;;;5022567;28;20293;-85
2023/03/06 07:33:08;;;;;;;;;;;2.40;99.90;;;;;;5008569;28;19925;-86
2023/03/06 07:35:34;;;;;;;;;;;2.40;99.90;;;;;;5006303;28;19925;-87
2023/03/06 07:37:59;;;;;;;;;;;4.90;99.90;;;;;;5024819;28;19933;-91
2023/03/06 07:40:25;;;;;;;;;;;2.50;99.90;;;;;;5004968;28;19929;-85
2023/03/06 07:42:54;;;;;;;;;;;3.00;99.90;;;;;;4995994;28;19929;-85
2023/03/06 07:45:20;;;;;;;;;;;2.50;99.90;;;;;;5022898;28;19932;-82
2023/03/06 07:47:48;;;;;;;;;;;3.80;99.90;;;;;;5008514;28;19929;-86
2023/03/06 07:50:13;;;;;;;;;;;4.40;99.90;;;;;;5009638;28;19931;-86
2023/03/06 07:52:39;;;;;;;;;;;5.00;99.90;;;;;;5020942;28;20016;-85
2023/03/06 07:55:05;;;;;;;;;;;4.10;99.90;;;;;;5008047;28;19925;-82
2023/03/06 07:57:30;;;;;;;;;;;2.90;99.90;;;;;;5006195;28;19926;-79
2023/03/06 07:59:56;;;;;;;;;;;4.40;99.90;;;;;;5006080;28;20392;-78
2023/03/06 08:02:21;;;;;;;;;;;3.00;99.90;;;;;;5023166;28;19931;-79
2023/03/06 08:04:53;;;;;;;;;;;3.20;99.90;;;;;;5025718;28;19932;-79
2023/03/06 08:07:19;;;;;;;;;;;3.70;99.90;;;;;;5022575;28;19965;-79
2023/03/06 08:09:45;;;;;;;;;;;4.60;99.90;;;;;;5022623;28;20343;-79
2023/03/06 08:12:10;;;;;;;;;;;5.50;99.90;;;;;;5002289;28;19925;-81
2023/03/06 08:14:36;;;;;;;;;;;5.60;99.90;;;;;;5016490;28;19973;-81
2023/03/06 08:17:01;;;;;;;;;;;5.90;99.90;;;;;;5004857;28;19925;-80
2023/03/06 08:19:27;;;;;;;;;;;7.50;99.90;;;;;;5019701;28;19968;-79
2023/03/06 08:21:52;;;;;;;;;;;9.10;99.90;;;;;;5023097;28;19968;-80
2023/03/06 08:24:21;;;;;;;;;;;9.20;99.90;;;;;;5003340;28;20464;-81
2023/03/06 08:26:49;;;;;;;;;;;11.10;99.90;;;;;;5002116;28;19925;-81
2023/03/06 08:29:15;;;;;;;;;;;11.20;99.90;;;;;;5024699;28;19925;-80
2023/03/06 08:31:41;;;;;;;;;;;11.10;99.90;;;;;;5023624;28;19925;-80
2023/03/06 08:34:12;;;;;;;;;;;11.40;99.90;;;;;;5000992;28;19925;-81
2023/03/06 08:36:37;;;;;;;;;;;11.40;99.90;;;;;;4999693;28;20019;-80
2023/03/06 08:39:03;;;;;;;;;;;12.00;99.90;;;;;;5023624;28;20096;-80
2023/03/06 08:41:29;;;;;;;;;;;12.80;99.90;;;;;;5001235;28;19926;-80
2023/03/06 08:43:54;;;;;;;;;;;13.70;98.90;;;;;;5015580;28;19976;-79
2023/03/06 08:46:27;;;;;;;;;;;13.70;95.30;;;;;;5002324;28;20024;-79
2023/03/06 08:48:53;;;;;;;;;;;12.90;96.50;;;;;;5023878;28;19972;-79
2023/03/06 08:51:18;;;;;;;;;;;12.40;96.60;;;;;;5023173;28;19976;-79
2023/03/06 08:53:44;;;;;;;;;;;12.70;95.40;;;;;;5023505;28;19925;-79
2023/03/06 08:56:14;;;;;;;;;;;12.10;95.90;;;;;;5020323;28;19957;-79
2023/03/06 08:58:39;;;;;;;;;;;11.80;98.20;;;;;;5023752;28;19933;-79
2023/03/06 09:01:10;;;;;;;;;;;11.70;98.00;;;;;;5021501;28;19987;-79
2023/03/06 09:03:36;;;;;;;;;;;11.50;99.90;;;;;;5007350;28;19933;-79
2023/03/06 09:06:02;;;;;;;;;;;11.40;98.80;;;;;;5003387;28;20384;-79
2023/03/06 09:08:27;;;;;;;;;;;11.40;98.10;;;;;;5007005;28;19929;-79
2023/03/06 09:10:53;;;;;;;;;;;12.10;97.20;;;;;;5020896;28;19933;-80
2023/03/06 09:13:18;;;;;;;;;;;12.60;97.90;;;;;;5023447;28;19968;-79
2023/03/06 09:15:44;;;;;;;;;;;13.10;96.20;;;;;;5004067;28;19925;-79
2023/03/06 09:18:09;;;;;;;;;;;13.90;95.60;;;;;;5022708;28;19926;-79
2023/03/06 09:20:35;;;;;;;;;;;14.70;94.40;;;;;;5005823;28;19924;-79
2023/03/06 09:23:00;;;;;;;;;;;15.00;91.90;;;;;;5017913;28;20653;-79
2023/03/06 09:25:26;;;;;;;;;;;15.40;90.40;;;;;;5003174;28;20349;-81
2023/03/06 09:27:51;;;;;;;;;;;16.20;91.50;;;;;;5024243;28;20404;-75
2023/03/06 09:30:17;;;;;;;;;;;16.60;84.80;;;;;;5018702;28;20012;-77
2023/03/06 09:32:43;;;;;;;;;;;16.50;84.40;;;;;;5025152;28;19925;-77
2023/03/06 09:35:09;;;;;;;;;;;17.00;83.90;;;;;;5004584;28;19933;-77
2023/03/06 09:37:35;;;;;;;;;;;17.00;81.40;;;;;;5004227;28;19932;-77
2023/03/06 09:40:00;;;;;;;;;;;17.10;84.00;;;;;;4996912;28;20352;-77
2023/03/06 09:42:27;;;;;;;;;;;17.00;81.10;;;;;;5000064;28;19929;-77
2023/03/06 09:44:54;;;;;;;;;;;16.90;79.30;;;;;;5001588;28;20447;-77
2023/03/06 09:47:41;;;;;;;;;;;16.70;80.00;;;;;;5012107;28;20306;-77
2023/03/06 09:50:15;;;;;;;;;;;16.50;81.30;;;;;;5002477;28;19925;-77
2023/03/06 09:52:47;;;;;;;;;;;17.00;82.10;;;;;;5004536;28;20024;-77
2023/03/06 09:55:20;;;;;;;;;;;17.60;83.20;;;;;;5010109;28;19964;-74
2023/03/06 09:57:54;;;;;;;;;;;17.80;80.00;;;;;;4995758;28;19957;-77
2023/03/06 10:00:23;;;;;;;;;;;18.30;81.70;;;;;;4998662;28;19932;-80
2023/03/06 10:02:55;;;;;;;;;;;18.20;77.20;;;;;;5001624;28;19932;-81
2023/03/06 10:05:21;;;;;;;;;;;18.60;76.00;;;;;;4998426;28;19976;-80
2023/03/06 10:07:53;;;;;;;;;;;18.80;74.10;;;;;;4997820;28;20018;-82
2023/03/06 10:10:21;;;;;;;;;;;17.90;73.90;;;;;;4989539;28;19926;-81
2023/03/06 10:12:52;;;;;;;;;;;18.30;76.60;;;;;;5005262;28;19921;-81
2023/03/06 10:15:23;;;;;;;;;;;18.30;78.70;;;;;;4993662;28;20047;-79
2023/03/06 10:17:49;;;;;;;;;;;17.90;75.80;;;;;;4989983;28;19925;-79
2023/03/06 10:20:15;;;;;;;;;;;17.80;75.40;;;;;;4993101;28;19936;-80
2023/03/06 10:23:01;;;;;;;;;;;18.10;76.30;;;;;;5010726;28;20301;-81
2023/03/06 10:25:28;;;;;;;;;;;17.80;76.90;;;;;;4991631;28;20395;-80
2023/03/06 10:27:54;;;;;;;;;;;17.70;75.10;;;;;;4992833;28;19929;-80
2023/03/06 10:30:38;;;;;;;;;;;17.60;78.10;;;;;;4994090;28;20015;-78
2023/03/06 10:33:07;;;;;;;;;;;17.90;74.90;;;;;;4999850;28;20488;-83
2023/03/06 10:35:47;;;;;;;;;;;17.90;75.00;;;;;;5000767;28;20020;-87
2023/03/06 10:38:26;;;;;;;;;;;18.40;77.70;;;;;;5016222;28;20229;-83
2023/03/06 10:41:16;;;;;;;;;;;18.30;74.90;;;;;;5003396;28;20380;-81
2023/03/06 10:43:43;;;;;;;;;;;19.30;78.40;;;;;;5007955;28;19979;-75
2023/03/06 10:46:10;;;;;;;;;;;15.70;75.10;;;;;;5005129;28;19929;-82
2023/03/06 10:48:36;;;;;;;;;;;14.90;80.00;;;;;;5023330;28;19947;-86
2023/03/06 10:51:08;;;;;;;;;;;14.50;78.80;;;;;;4999960;28;19960;-83
2023/03/06 10:53:33;;;;;;;;;;;14.80;80.60;;;;;;4995267;28;19921;-81
2023/03/06 10:55:59;;;;;;;;;;;15.40;79.50;;;;;;4994788;28;19937;-81
2023/03/06 10:58:26;;;;;;;;;;;16.30;78.70;;;;;;4995615;28;19973;-80
2023/03/06 11:01:10;;;;;;;;;;;16.60;74.50;;;;;;5012459;28;19921;-80
2023/03/06 11:03:36;;;;;;;;;;;16.80;75.50;;;;;;5017785;28;19975;-84
2023/03/06 11:06:04;;;;;;;;;;;16.30;74.10;;;;;;4999579;28;19933;-84
2023/03/06 11:08:30;;;;;;;;;;;16.00;76.40;;;;;;5005646;28;20003;-87
2023/03/06 11:11:19;;;;;;;;;;;16.30;78.60;;;;;;5015708;28;20353;-86
2023/03/06 11:13:54;;;;;;;;;;;16.30;75.20;;;;;;5019127;28;19925;-80
2023/03/06 11:16:27;;;;;;;;;;;15.60;75.20;;;;;;5005025;28;20287;-87
2023/03/06 11:19:00;;;;;;;;;;;14.50;74.80;;;;;;5004188;28;19925;-89
2023/03/06 11:21:27;;;;;;;;;;;14.50;80.50;;;;;;5018788;28;20094;-88
2023/03/06 11:23:54;;;;;;;;;;;14.70;79.40;;;;;;5001409;28;19932;-85
2023/03/06 11:26:24;;;;;;;;;;;14.60;75.00;;;;;;5017085;28;19929;-84
2023/03/06 11:29:00;;;;;;;;;;;14.70;76.10;;;;;;5023613;28;19926;-86
2023/03/06 11:31:28;;;;;;;;;;;14.80;75.10;;;;;;5006038;28;19925;-85
2023/03/06 11:34:12;;;;;;;;;;;15.00;75.70;;;;;;5010095;28;19925;-90
2023/03/06 11:36:55;;;;;;;;;;;15.10;72.50;;;;;;5035875;28;19925;-91
2023/03/06 11:39:24;;;;;;;;;;;15.80;71.30;;;;;;5027221;28;19925;-89
2023/03/06 11:41:53;;;;;;;;;;;15.10;74.60;;;;;;5006058;28;19925;-90
2023/03/06 11:44:28;;;;;;;;;;;14.80;73.30;;;;;;5021399;28;19925;-92
2023/03/06 11:47:17;;;;;;;;;;;15.00;73.30;;;;;;4999009;28;19931;-89
2023/03/06 11:49:49;;;;;;;;;;;14.80;74.10;;;;;;5000599;28;19980;-86
2023/03/06 11:52:21;;;;;;;;;;;14.50;73.40;;;;;;5033589;28;20008;-90
2023/03/06 11:54:49;;;;;;;;;;;13.70;77.10;;;;;;4999261;28;19921;-90
2023/03/06 11:57:16;;;;;;;;;;;14.00;80.30;;;;;;5019894;28;20007;-88
2023/03/06 11:59:49;;;;;;;;;;;14.60;78.90;;;;;;5014264;28;19933;-88
2023/03/06 12:02:41;;;;;;;;;;;14.70;78.70;;;;;;5014867;28;19987;-86
2023/03/06 12:05:07;;;;;;;;;;;14.90;77.00;;;;;;4968326;28;19933;-88
2023/03/06 12:07:34;;;;;;;;;;;15.60;78.80;;;;;;5021551;28;19925;-89
2023/03/06 12:10:06;;;;;;;;;;;15.60;74.60;;;;;;5021612;28;19960;-89
2023/03/06 12:12:39;;;;;;;;;;;14.70;79.20;;;;;;5007405;28;19926;-83
2023/03/06 12:15:24;;;;;;;;;;;14.70;78.20;;;;;;5012059;28;19925;-87
2023/03/06 12:18:10;;;;;;;;;;;14.30;79.30;;;;;;5022236;28;19975;-83
2023/03/06 12:20:50;;;;;;;;;;;13.80;78.10;;;;;;5019909;28;19921;-82
2023/03/06 12:23:16;;;;;;;;;;;13.70;79.20;;;;;;5005329;28;20020;-82
2023/03/06 12:25:43;;;;;;;;;;;13.70;80.70;;;;;;5022605;28;20420;-82
2023/03/06 12:28:15;;;;;;;;;;;13.60;82.80;;;;;;5005395;28;19929;-87
2023/03/06 12:30:50;;;;;;;;;;;13.90;80.60;;;;;;5019679;28;19926;-93
2023/03/06 12:33:21;;;;;;;;;;;13.50;81.10;;;;;;5006747;28;19980;-87
2023/03/06 12:35:47;;;;;;;;;;;13.40;80.80;;;;;;5003807;28;19925;-87
2023/03/06 12:38:31;;;;;;;;;;;12.90;82.80;;;;;;5008640;28;19929;-88
2023/03/06 12:40:59;;;;;;;;;;;12.80;81.60;;;;;;5010106;28;19976;-86
2023/03/06 12:43:43;;;;;;;;;;;12.40;80.30;;;;;;5008073;28;20007;-89
2023/03/06 12:46:12;;;;;;;;;;;12.00;83.90;;;;;;5001633;28;20333;-83
2023/03/06 12:48:38;;;;;;;;;;;11.70;84.60;;;;;;5022094;28;19980;-85
2023/03/06 12:51:05;;;;;;;;;;;11.20;85.40;;;;;;5004457;28;20385;-83
2023/03/06 12:53:32;;;;;;;;;;;10.80;88.50;;;;;;5004616;28;19979;-81
2023/03/06 12:55:59;;;;;;;;;;;10.60;89.90;;;;;;5023947;28;19932;-80
2023/03/06 12:58:27;;;;;;;;;;;10.10;91.20;;;;;;5002541;28;19936;-86
2023/03/06 13:01:08;;;;;;;;;;;9.60;92.20;;;;;;4997841;28;19925;-83
2023/03/06 13:03:43;;;;;;;;;;;9.40;92.70;;;;;;5002281;28;19932;-87
2023/03/06 13:06:24;;;;;;;;;;;9.20;92.60;;;;;;5006739;28;19925;-87
2023/03/06 13:08:57;;;;;;;;;;;9.00;93.60;;;;;;4999881;28;19925;-85
2023/03/06 13:11:35;;;;;;;;;;;8.90;94.90;;;;;;5025897;28;19925;-87
2023/03/06 13:14:18;;;;;;;;;;;9.10;94.60;;;;;;5008084;28;19925;-88
2023/03/06 13:16:43;;;;;;;;;;;9.60;94.90;;;;;;5007450;28;19926;-84
2023/03/06 13:19:10;;;;;;;;;;;8.80;95.00;;;;;;5004987;28;19940;-89
2023/03/06 13:21:44;;;;;;;;;;;9.50;94.30;;;;;;5003093;28;19929;-86
2023/03/06 13:24:18;;;;;;;;;;;8.60;95.60;;;;;;5008184;28;20411;-87
2023/03/06 13:26:44;;;;;;;;;;;8.60;96.40;;;;;;5017665;28;19929;-89
2023/03/06 13:29:28;;;;;;;;;;;8.70;95.90;;;;;;5004809;28;19925;-89
2023/03/06 13:31:54;;;;;;;;;;;8.40;96.60;;;;;;5008691;28;19925;-88
2023/03/06 13:34:33;;;;;;;;;;;9.00;96.70;;;;;;5021739;28;20452;-84
2023/03/06 13:37:17;;;;;;;;;;;8.20;97.00;;;;;;5018232;28;19948;-89
2023/03/06 13:39:49;;;;;;;;;;;7.80;98.20;;;;;;5017419;28;20376;-88
2023/03/06 13:42:24;;;;;;;;;;;7.80;98.60;;;;;;5008293;28;20004;-89
2023/03/06 13:44:50;;;;;;;;;;;7.60;99.70;;;;;;5000231;28;19925;-88
2023/03/06 13:47:20;;;;;;;;;;;9.00;99.90;;;;;;5011662;28;20185;-88
2023/03/06 13:49:47;;;;;;;;;;;7.20;99.90;;;;;;5004148;28;19979;-88
2023/03/06 13:52:31;;;;;;;;;;;7.00;99.90;;;;;;5025084;28;19929;-89
2023/03/06 13:55:23;;;;;;;;;;;7.00;99.90;;;;;;4989525;28;19929;-89
2023/03/06 13:58:07;;;;;;;;;;;6.90;99.90;;;;;;4961845;28;20248;-85
2023/03/06 14:00:51;;;;;;;;;;;6.60;99.90;;;;;;5002747;28;19942;-85
2023/03/06 14:03:25;;;;;;;;;;;6.70;99.90;;;;;;5004919;28;19929;-86
2023/03/06 14:05:51;;;;;;;;;;;6.80;99.90;;;;;;5021906;28;19951;-87
2023/03/06 14:08:24;;;;;;;;;;;6.80;99.90;;;;;;5021451;28;20373;-87
2023/03/06 14:11:15;;;;;;;;;;;6.80;99.90;;;;;;5019176;28;19932;-86
2023/03/06 14:13:44;;;;;;;;;;;6.70;99.90;;;;;;5012947;28;19947;-88
2023/03/06 14:16:16;;;;;;;;;;;6.60;99.90;;;;;;5024404;28;19928;-88
2023/03/06 14:18:45;;;;;;;;;;;8.40;99.90;;;;;;5001977;28;19948;-87
2023/03/06 14:21:12;;;;;;;;;;;6.50;99.90;;;;;;5003266;28;20317;-87
2023/03/06 14:23:42;;;;;;;;;;;6.90;99.90;;;;;;5006001;28;20373;-88
2023/03/06 14:26:16;;;;;;;;;;;6.40;99.90;;;;;;5013129;28;19925;-89
2023/03/06 14:28:52;;;;;;;;;;;6.30;99.90;;;;;;5007136;28;19926;-90
2023/03/06 14:31:20;;;;;;;;;;;6.20;99.90;;;;;;4976111;28;19926;-90
2023/03/06 14:33:52;;;;;;;;;;;6.80;99.90;;;;;;5002475;28;19972;-89